Time;durP1;ratioP1;P1;durP2;ratioP2;P2;SDS_P1;SDS_P2;PMS_P1;PMS_P2;Temp;Humidity;BMP_temperature;BMP_pressure;BME280_temperature;BME280_humidity;BME280_pressure;Samples;Min_cycle;Max_cycle;Signal;HPM_P1;HPM_P2
2023/04/12 00:04:21;;;;;;;18.00;11.50;;;;;;;;;;13043788;22;20498;-83
2023/04/12 00:09:29;;;;;;;16.23;11.27;;;;;;;;;;13042375;22;20418;-83
2023/04/12 00:14:31;;;;;;;18.38;11.73;;;;;;;;;;13042522;22;20655;-83
2023/04/12 00:19:33;;;;;;;18.00;11.97;;;;;;;;;;13042370;22;20361;-83
2023/04/12 00:24:37;;;;;;;19.45;11.52;;;;;;;;;;13042603;22;20422;-83
2023/04/12 00:29:38;;;;;;;18.47;11.67;;;;;;;;;;13044381;22;20377;-83
2023/04/12 00:34:40;;;;;;;16.33;11.15;;;;;;;;;;13042624;22;20361;-84
2023/04/12 00:39:43;;;;;;;19.00;11.33;;;;;;;;;;13044781;22;20365;-83
2023/04/12 00:44:45;;;;;;;18.23;11.83;;;;;;;;;;13044757;22;20357;-83
2023/04/12 00:49:47;;;;;;;18.05;12.23;;;;;;;;;;13043051;22;20471;-83
2023/04/12 00:54:52;;;;;;;18.00;11.27;;;;;;;;;;13043599;22;20361;-83
2023/04/12 00:59:54;;;;;;;15.73;11.18;;;;;;;;;;13042596;22;20867;-83
2023/04/12 01:04:57;;;;;;;15.68;10.63;;;;;;;;;;13042306;22;20368;-83
2023/04/12 01:10:09;;;;;;;19.70;10.82;;;;;;;;;;13044231;22;20388;-84
2023/04/12 01:15:13;;;;;;;15.27;10.13;;;;;;;;;;13043834;22;20407;-83
2023/04/12 01:20:20;;;;;;;17.17;10.43;;;;;;;;;;13036528;22;20419;-83
2023/04/12 01:25:38;;;;;;;14.60;9.93;;;;;;;;;;13044312;22;20665;-83
2023/04/12 01:30:42;;;;;;;17.42;10.88;;;;;;;;;;13043564;22;20365;-83
2023/04/12 01:35:45;;;;;;;15.57;10.40;;;;;;;;;;13043051;22;20364;-83
2023/04/12 01:40:49;;;;;;;17.15;10.68;;;;;;;;;;13043444;22;20377;-83
2023/04/12 01:45:52;;;;;;;14.33;9.90;;;;;;;;;;13045205;22;20387;-83
2023/04/12 01:51:04;;;;;;;13.70;9.90;;;;;;;;;;13050718;22;20352;-83
2023/04/12 01:56:09;;;;;;;14.67;9.87;;;;;;;;;;13051340;22;20443;-83
2023/04/12 02:01:14;;;;;;;14.18;9.27;;;;;;;;;;13018124;22;20440;-83
2023/04/12 02:06:18;;;;;;;14.13;9.80;;;;;;;;;;13047353;22;20523;-83
2023/04/12 02:11:20;;;;;;;15.68;9.68;;;;;;;;;;13049362;22;20353;-83
2023/04/12 02:16:23;;;;;;;15.13;9.88;;;;;;;;;;13050710;22;20376;-83
2023/04/12 02:21:26;;;;;;;13.85;9.40;;;;;;;;;;13049116;22;20388;-83
2023/04/12 02:26:28;;;;;;;14.40;9.40;;;;;;;;;;13049233;22;20781;-83
2023/04/12 02:31:31;;;;;;;14.88;9.93;;;;;;;;;;13050358;22;20368;-82
2023/04/12 02:36:36;;;;;;;14.57;9.45;;;;;;;;;;13048633;22;20364;-83
2023/04/12 02:41:38;;;;;;;14.77;9.65;;;;;;;;;;13049304;22;20371;-83
2023/04/12 02:46:41;;;;;;;17.15;10.15;;;;;;;;;;13049596;22;20380;-83
2023/04/12 02:51:43;;;;;;;15.40;10.05;;;;;;;;;;13050214;22;20389;-83
2023/04/12 02:56:45;;;;;;;14.93;9.40;;;;;;;;;;13049065;22;20365;-83
2023/04/12 03:01:49;;;;;;;16.00;9.43;;;;;;;;;;13046058;22;20693;-84
2023/04/12 03:06:52;;;;;;;14.65;9.48;;;;;;;;;;13045370;22;20381;-83
2023/04/12 03:11:54;;;;;;;14.30;9.10;;;;;;;;;;13046238;22;20492;-83
2023/04/12 03:16:57;;;;;;;13.95;9.38;;;;;;;;;;13046250;22;20353;-84
2023/04/12 03:22:00;;;;;;;13.00;8.60;;;;;;;;;;13045053;22;20775;-84
2023/04/12 03:27:02;;;;;;;14.27;9.13;;;;;;;;;;13043720;22;20735;-83
2023/04/12 03:32:06;;;;;;;14.30;8.98;;;;;;;;;;13046339;22;20369;-84
2023/04/12 03:37:08;;;;;;;14.93;9.20;;;;;;;;;;13043760;22;20698;-81
2023/04/12 03:42:09;;;;;;;14.45;9.23;;;;;;;;;;13045353;22;20893;-83
2023/04/12 03:47:12;;;;;;;14.10;9.60;;;;;;;;;;13045250;22;20697;-83
2023/04/12 03:52:14;;;;;;;15.15;9.68;;;;;;;;;;13045397;22;20463;-83
2023/04/12 03:57:16;;;;;;;14.65;9.50;;;;;;;;;;13045809;22;20357;-83
2023/04/12 04:02:19;;;;;;;15.15;9.30;;;;;;;;;;13044689;22;20438;-83
2023/04/12 04:07:22;;;;;;;17.05;9.82;;;;;;;;;;13043038;22;20760;-83
2023/04/12 04:12:24;;;;;;;14.23;9.37;;;;;;;;;;13044843;22;20422;-83
2023/04/12 04:17:27;;;;;;;16.80;9.60;;;;;;;;;;13045003;22;20365;-83
2023/04/12 04:22:31;;;;;;;16.60;10.00;;;;;;;;;;13044296;22;20377;-83
2023/04/12 04:27:33;;;;;;;15.03;9.80;;;;;;;;;;13043802;22;20408;-83
2023/04/12 04:32:36;;;;;;;17.80;10.60;;;;;;;;;;13043806;22;20365;-83
2023/04/12 04:37:39;;;;;;;15.23;10.23;;;;;;;;;;13043337;22;20685;-83
2023/04/12 04:42:42;;;;;;;16.38;10.48;;;;;;;;;;13044014;22;20852;-83
2023/04/12 04:47:45;;;;;;;15.98;10.60;;;;;;;;;;13043062;22;20884;-83
2023/04/12 04:52:47;;;;;;;15.30;10.50;;;;;;;;;;13043058;22;20436;-84
2023/04/12 04:57:49;;;;;;;18.43;11.57;;;;;;;;;;13042075;22;20468;-84
2023/04/12 05:02:53;;;;;;;16.40;10.90;;;;;;;;;;13043382;22;20360;-84
2023/04/12 05:07:55;;;;;;;18.95;11.07;;;;;;;;;;13042362;22;20391;-84
2023/04/12 05:12:57;;;;;;;17.20;11.20;;;;;;;;;;13042332;22;20399;-83
2023/04/12 05:18:00;;;;;;;19.45;11.18;;;;;;;;;;13041929;22;20369;-84
2023/04/12 05:23:02;;;;;;;18.88;10.98;;;;;;;;;;13040870;22;20372;-81
2023/04/12 05:28:04;;;;;;;18.10;11.57;;;;;;;;;;13041657;22;20444;-83
2023/04/12 05:33:07;;;;;;;18.38;11.80;;;;;;;;;;13040666;22;20422;-84
2023/04/12 05:38:09;;;;;;;19.63;11.80;;;;;;;;;;13038675;22;20392;-82
2023/04/12 05:43:12;;;;;;;17.77;11.70;;;;;;;;;;13038273;22;20434;-84
2023/04/12 05:48:15;;;;;;;21.33;11.10;;;;;;;;;;13038082;22;20385;-84
2023/04/12 05:53:17;;;;;;;19.67;12.00;;;;;;;;;;13039600;22;20378;-84
2023/04/12 05:58:19;;;;;;;22.33;12.43;;;;;;;;;;13041630;22;20385;-84
2023/04/12 06:03:23;;;;;;;20.77;12.63;;;;;;;;;;13041905;22;20459;-85
2023/04/12 06:08:28;;;;;;;27.00;14.38;;;;;;;;;;13041357;22;20376;-84
2023/04/12 06:13:30;;;;;;;21.17;13.07;;;;;;;;;;13043042;22;20356;-84
2023/04/12 06:18:33;;;;;;;21.33;12.77;;;;;;;;;;13042911;22;20395;-84
2023/04/12 06:23:35;;;;;;;19.10;11.93;;;;;;;;;;13043322;22;20384;-84
2023/04/12 06:28:37;;;;;;;18.80;12.23;;;;;;;;;;13043517;22;20385;-84
2023/04/12 06:33:40;;;;;;;18.73;12.50;;;;;;;;;;13044880;22;20444;-84
2023/04/12 06:38:42;;;;;;;20.38;12.43;;;;;;;;;;13045452;22;20387;-84
2023/04/12 06:43:44;;;;;;;20.50;13.40;;;;;;;;;;13045401;22;20353;-84
2023/04/12 06:48:47;;;;;;;22.25;12.50;;;;;;;;;;13046021;22;20458;-83
2023/04/12 06:53:49;;;;;;;22.52;13.07;;;;;;;;;;13046741;22;20375;-85
2023/04/12 06:58:51;;;;;;;22.17;12.90;;;;;;;;;;13046896;22;20365;-84
2023/04/12 07:03:54;;;;;;;21.63;11.97;;;;;;;;;;13045385;22;20685;-84
2023/04/12 07:08:56;;;;;;;21.83;12.30;;;;;;;;;;13046065;22;20384;-84
2023/04/12 07:13:59;;;;;;;19.35;12.77;;;;;;;;;;13045545;22;20416;-84
2023/04/12 07:19:02;;;;;;;23.83;13.40;;;;;;;;;;13045804;22;20395;-84
2023/04/12 07:24:04;;;;;;;21.80;12.57;;;;;;;;;;13044985;22;20395;-83
2023/04/12 07:29:06;;;;;;;17.15;10.40;;;;;;;;;;13015709;22;20380;-84
2023/04/12 07:34:09;;;;;;;17.83;10.05;;;;;;;;;;13044347;22;20372;-83
2023/04/12 07:39:12;;;;;;;14.02;8.60;;;;;;;;;;13045088;22;20363;-84
2023/04/12 07:44:13;;;;;;;12.60;8.05;;;;;;;;;;13044492;22;20727;-84
2023/04/12 07:49:17;;;;;;;11.70;7.55;;;;;;;;;;13044415;22;20772;-84
2023/04/12 07:54:19;;;;;;;11.40;7.57;;;;;;;;;;13043343;22;20389;-84
2023/04/12 07:59:20;;;;;;;11.73;6.90;;;;;;;;;;13045269;22;20452;-83
2023/04/12 08:04:23;;;;;;;9.52;6.65;;;;;;;;;;13045389;22;20384;-84
2023/04/12 08:09:25;;;;;;;9.73;6.83;;;;;;;;;;13044192;22;20404;-83
2023/04/12 08:14:27;;;;;;;9.75;6.93;;;;;;;;;;13041881;22;20396;-84
2023/04/12 08:19:30;;;;;;;10.65;7.07;;;;;;;;;;13040110;22;20381;-82
2023/04/12 08:24:32;;;;;;;9.20;6.53;;;;;;;;;;13040631;22;20364;-82
2023/04/12 08:29:34;;;;;;;10.73;6.87;;;;;;;;;;13040792;22;20385;-82
2023/04/12 08:34:38;;;;;;;9.43;6.47;;;;;;;;;;13040774;22;20365;-81
2023/04/12 08:39:40;;;;;;;8.68;6.60;;;;;;;;;;13040597;22;20876;-82
2023/04/12 08:44:42;;;;;;;11.02;6.93;;;;;;;;;;13041634;22;20459;-81
2023/04/12 08:49:45;;;;;;;10.83;7.37;;;;;;;;;;13041778;22;20392;-82
2023/04/12 08:54:47;;;;;;;11.45;7.18;;;;;;;;;;13041600;22;20700;-81
2023/04/12 08:59:50;;;;;;;11.48;6.78;;;;;;;;;;13042242;22;20389;-81
2023/04/12 09:04:54;;;;;;;11.65;7.13;;;;;;;;;;13040255;22;20567;-83
2023/04/12 09:09:57;;;;;;;13.20;7.83;;;;;;;;;;13042142;22;20876;-83
2023/04/12 09:15:11;;;;;;;9.77;6.28;;;;;;;;;;13042370;22;20392;-83
2023/04/12 09:20:24;;;;;;;10.50;6.28;;;;;;;;;;13041870;22;20848;-83
2023/04/12 09:25:38;;;;;;;9.60;6.47;;;;;;;;;;13041630;22;20655;-83
2023/04/12 09:30:42;;;;;;;9.98;6.68;;;;;;;;;;13041938;22;20408;-82
2023/04/12 09:35:45;;;;;;;9.60;6.97;;;;;;;;;;13040794;22;20391;-83
2023/04/12 09:40:48;;;;;;;9.43;6.50;;;;;;;;;;13038979;22;20364;-82
2023/04/12 09:45:50;;;;;;;9.55;6.50;;;;;;;;;;13040110;22;20828;-82
2023/04/12 09:51:00;;;;;;;8.60;6.00;;;;;;;;;;13042282;22;20383;-82
2023/04/12 09:56:03;;;;;;;8.53;6.00;;;;;;;;;;13037690;22;20529;-82
2023/04/12 10:01:09;;;;;;;10.10;5.90;;;;;;;;;;13033240;22;20759;-83
2023/04/12 10:06:13;;;;;;;9.95;6.47;;;;;;;;;;13034574;22;20396;-83
2023/04/12 10:11:15;;;;;;;8.45;5.85;;;;;;;;;;13037628;22;20803;-83
2023/04/12 10:16:17;;;;;;;8.45;5.80;;;;;;;;;;13037206;22;20372;-83
2023/04/12 10:21:21;;;;;;;23.33;12.77;;;;;;;;;;13037019;22;20399;-83
2023/04/12 10:26:23;;;;;;;19.40;10.20;;;;;;;;;;13037897;22;20383;-83
2023/04/12 10:31:29;;;;;;;9.52;6.60;;;;;;;;;;13036801;22;20839;-83
2023/04/12 10:36:55;;;;;;;19.85;13.18;;;;;;;;;;13040402;22;20435;-82
2023/04/12 10:42:25;;;;;;;8.40;6.63;;;;;;;;;;13042871;22;20448;-84
2023/04/12 10:47:57;;;;;;;8.67;6.33;;;;;;;;;;13045575;22;20456;-84
2023/04/12 10:53:24;;;;;;;9.07;6.38;;;;;;;;;;13045383;22;20365;-84
2023/04/12 10:58:55;;;;;;;11.37;6.47;;;;;;;;;;13045754;22;20393;-83
2023/04/12 11:04:14;;;;;;;9.57;6.93;;;;;;;;;;13046414;22;20368;-83
2023/04/12 11:09:22;;;;;;;8.85;6.85;;;;;;;;;;13044995;22;20380;-84
2023/04/12 11:14:28;;;;;;;8.80;6.40;;;;;;;;;;13035856;22;20709;-84
2023/04/12 11:19:31;;;;;;;13.13;6.85;;;;;;;;;;13034997;22;20372;-83
2023/04/12 11:24:38;;;;;;;11.50;7.28;;;;;;;;;;13035982;22;20721;-84
2023/04/12 11:29:39;;;;;;;10.68;6.65;;;;;;;;;;13036132;22;20377;-84
2023/04/12 11:34:43;;;;;;;12.15;6.90;;;;;;;;;;13034297;22;20760;-84
2023/04/12 11:39:47;;;;;;;11.05;6.57;;;;;;;;;;13037398;22;20457;-83
2023/04/12 11:44:50;;;;;;;9.27;6.90;;;;;;;;;;13035120;22;20390;-83
2023/04/12 11:49:53;;;;;;;12.85;8.05;;;;;;;;;;13035117;22;20381;-84
2023/04/12 11:54:57;;;;;;;14.27;10.27;;;;;;;;;;13036391;22;20404;-83
2023/04/12 12:00:00;;;;;;;9.47;7.00;;;;;;;;;;13039359;22;20387;-84
2023/04/12 12:05:02;;;;;;;12.80;7.70;;;;;;;;;;13039567;22;20367;-82
2023/04/12 12:10:07;;;;;;;10.18;7.03;;;;;;;;;;13038823;22;20787;-82
2023/04/12 12:15:09;;;;;;;9.03;7.17;;;;;;;;;;13044470;22;20368;-84
2023/04/12 12:20:20;;;;;;;13.13;7.53;;;;;;;;;;13042156;22;20374;-82
2023/04/12 12:25:23;;;;;;;9.02;6.13;;;;;;;;;;13043330;22;20353;-84
2023/04/12 12:30:25;;;;;;;9.73;7.40;;;;;;;;;;13035941;22;20704;-85
2023/04/12 12:35:27;;;;;;;15.05;7.20;;;;;;;;;;13041472;22;20424;-84
2023/04/12 12:40:32;;;;;;;7.32;5.57;;;;;;;;;;13039861;22;20353;-84
2023/04/12 12:45:35;;;;;;;8.40;6.20;;;;;;;;;;13037848;22;20388;-83
2023/04/12 12:50:37;;;;;;;7.60;5.72;;;;;;;;;;13042016;22;20380;-84
2023/04/12 12:55:41;;;;;;;7.60;5.50;;;;;;;;;;13042437;22;20357;-84
2023/04/12 13:00:43;;;;;;;7.43;5.50;;;;;;;;;;13039594;22;20438;-84
2023/04/12 13:05:45;;;;;;;10.15;6.05;;;;;;;;;;13042170;22;20395;-84
2023/04/12 13:10:48;;;;;;;10.10;6.07;;;;;;;;;;13041452;22;20467;-84
2023/04/12 13:15:51;;;;;;;10.45;7.28;;;;;;;;;;13042904;22;20360;-83
2023/04/12 13:20:53;;;;;;;9.23;6.05;;;;;;;;;;13041114;22;20606;-83
2023/04/12 13:25:56;;;;;;;9.37;6.00;;;;;;;;;;13042986;22;20349;-84
2023/04/12 13:30:59;;;;;;;10.05;7.15;;;;;;;;;;13042123;22;20446;-84
2023/04/12 13:36:01;;;;;;;9.60;6.75;;;;;;;;;;13041039;22;20357;-84
2023/04/12 13:41:05;;;;;;;8.90;6.67;;;;;;;;;;13041150;22;20357;-84
2023/04/12 13:46:07;;;;;;;9.40;6.47;;;;;;;;;;13041145;22;20409;-84
2023/04/12 13:51:09;;;;;;;8.38;6.15;;;;;;;;;;13041559;22;20384;-84
2023/04/12 13:56:14;;;;;;;9.13;6.15;;;;;;;;;;13040594;22;20817;-84
2023/04/12 14:01:17;;;;;;;8.70;5.45;;;;;;;;;;13041213;22;20357;-84
2023/04/12 14:06:18;;;;;;;8.03;5.30;;;;;;;;;;13036711;22;20364;-83
2023/04/12 14:11:23;;;;;;;7.68;5.53;;;;;;;;;;13038126;22;20419;-84
2023/04/12 14:16:24;;;;;;;8.00;6.20;;;;;;;;;;13040660;22;20738;-84
2023/04/12 14:21:28;;;;;;;9.13;6.07;;;;;;;;;;13040177;22;20376;-84
2023/04/12 14:26:31;;;;;;;8.50;5.95;;;;;;;;;;13041284;22;20365;-84
2023/04/12 14:31:33;;;;;;;6.40;4.60;;;;;;;;;;13040738;22;20380;-84
2023/04/12 14:36:35;;;;;;;9.55;5.32;;;;;;;;;;13041141;22;20371;-84
2023/04/12 14:41:39;;;;;;;6.32;4.70;;;;;;;;;;13041782;22;20384;-84
2023/04/12 14:46:41;;;;;;;7.78;4.78;;;;;;;;;;13040640;22;20364;-84
2023/04/12 14:51:43;;;;;;;8.40;5.30;;;;;;;;;;13041969;22;20387;-83
2023/04/12 14:56:47;;;;;;;7.00;4.70;;;;;;;;;;13043926;22;20396;-84
2023/04/12 15:01:51;;;;;;;8.10;5.50;;;;;;;;;;13044547;22;20360;-83
2023/04/12 15:06:52;;;;;;;8.55;5.20;;;;;;;;;;13043542;22;20361;-83
2023/04/12 15:11:59;;;;;;;9.65;6.28;;;;;;;;;;13044152;22;20383;-84
2023/04/12 15:17:01;;;;;;;11.00;6.50;;;;;;;;;;13043612;22;20364;-84
2023/04/12 15:22:03;;;;;;;12.88;8.88;;;;;;;;;;13043400;22;20404;-84
2023/04/12 15:27:06;;;;;;;8.30;6.05;;;;;;;;;;13044556;22;20658;-86
2023/04/12 15:32:08;;;;;;;6.60;4.87;;;;;;;;;;13044014;22;20391;-83
2023/04/12 15:37:10;;;;;;;10.40;6.00;;;;;;;;;;13041930;22;20692;-83
2023/04/12 15:42:14;;;;;;;9.03;5.43;;;;;;;;;;13043562;22;20361;-84
2023/04/12 15:47:16;;;;;;;8.50;4.97;;;;;;;;;;13041174;22;20352;-84
2023/04/12 15:52:17;;;;;;;8.55;5.45;;;;;;;;;;13040549;22;20377;-84
2023/04/12 15:57:21;;;;;;;7.28;4.80;;;;;;;;;;13042341;22;20364;-83
2023/04/12 16:02:22;;;;;;;9.13;5.10;;;;;;;;;;13034642;22;20372;-84
2023/04/12 16:07:25;;;;;;;7.10;5.22;;;;;;;;;;13033867;22;20791;-83
2023/04/12 16:12:28;;;;;;;8.77;5.30;;;;;;;;;;13029439;22;20416;-83
2023/04/12 16:17:30;;;;;;;7.40;5.25;;;;;;;;;;13033049;22;20436;-83
2023/04/12 16:22:32;;;;;;;7.23;5.20;;;;;;;;;;13030235;22;20410;-83
2023/04/12 16:27:35;;;;;;;7.28;5.47;;;;;;;;;;13004255;22;20376;-84
2023/04/12 16:32:37;;;;;;;9.05;5.68;;;;;;;;;;13032379;22;20373;-83
2023/04/12 16:37:39;;;;;;;9.57;5.60;;;;;;;;;;13029861;22;20885;-82
2023/04/12 16:42:44;;;;;;;9.45;5.90;;;;;;;;;;13032061;22;20887;-83
2023/04/12 16:47:47;;;;;;;8.82;5.45;;;;;;;;;;13034244;22;20377;-84
2023/04/12 16:52:49;;;;;;;8.13;5.50;;;;;;;;;;13032665;22;20391;-83
2023/04/12 16:57:53;;;;;;;8.65;5.72;;;;;;;;;;13030017;22;20376;-84
2023/04/12 17:02:55;;;;;;;8.07;5.40;;;;;;;;;;13031294;22;20706;-84
2023/04/12 17:07:57;;;;;;;8.93;5.65;;;;;;;;;;13030388;22;20372;-83
2023/04/12 17:13:01;;;;;;;8.60;6.07;;;;;;;;;;13032751;22;20397;-84
2023/04/12 17:18:05;;;;;;;9.18;5.72;;;;;;;;;;13031578;22;20450;-83
2023/04/12 17:23:08;;;;;;;8.18;5.75;;;;;;;;;;13031491;22;20436;-84
2023/04/12 17:28:12;;;;;;;10.43;6.47;;;;;;;;;;13031367;22;20372;-83
2023/04/12 17:33:17;;;;;;;8.02;6.35;;;;;;;;;;13031561;22;20694;-84
2023/04/12 17:38:18;;;;;;;8.38;6.80;;;;;;;;;;13032295;22;20777;-84
2023/04/12 17:43:22;;;;;;;10.03;6.37;;;;;;;;;;13033447;22;20400;-84
2023/04/12 17:48:24;;;;;;;10.13;6.13;;;;;;;;;;13033062;22;20380;-84
2023/04/12 17:53:26;;;;;;;10.30;6.57;;;;;;;;;;13031426;22;20391;-84
2023/04/12 17:58:29;;;;;;;9.98;6.72;;;;;;;;;;13032753;22;20372;-82
2023/04/12 18:03:31;;;;;;;9.15;6.45;;;;;;;;;;13032605;22;20827;-82
2023/04/12 18:08:33;;;;;;;11.07;7.38;;;;;;;;;;13032079;22;20387;-83
2023/04/12 18:13:36;;;;;;;11.10;6.73;;;;;;;;;;13030391;22;20372;-83
2023/04/12 18:18:38;;;;;;;14.10;7.20;;;;;;;;;;13031517;22;20888;-84
2023/04/12 18:23:40;;;;;;;9.48;6.68;;;;;;;;;;13031539;22;20843;-83
2023/04/12 18:28:43;;;;;;;9.93;6.90;;;;;;;;;;13034935;22;20422;-83
2023/04/12 18:33:46;;;;;;;10.77;7.00;;;;;;;;;;13036196;22;20380;-83
2023/04/12 18:38:48;;;;;;;8.48;6.15;;;;;;;;;;13036500;22;20372;-83
2023/04/12 18:43:51;;;;;;;9.03;6.53;;;;;;;;;;13035009;22;20438;-83
2023/04/12 18:48:53;;;;;;;9.70;7.00;;;;;;;;;;13036381;22;20914;-84
2023/04/12 18:53:55;;;;;;;11.85;7.68;;;;;;;;;;13034705;22;20416;-84
2023/04/12 18:58:58;;;;;;;11.52;8.00;;;;;;;;;;13034965;22;20377;-83
2023/04/12 19:04:03;;;;;;;12.18;8.75;;;;;;;;;;13035803;22;20940;-83
2023/04/12 19:09:07;;;;;;;10.38;7.25;;;;;;;;;;13034932;22;20464;-83
2023/04/12 19:14:12;;;;;;;8.70;6.47;;;;;;;;;;13035586;22;20384;-84
2023/04/12 19:19:17;;;;;;;9.23;6.55;;;;;;;;;;13034595;22;20393;-83
2023/04/12 19:24:23;;;;;;;9.13;6.70;;;;;;;;;;13035476;22;20393;-83
2023/04/12 19:29:32;;;;;;;9.57;6.53;;;;;;;;;;13036295;22;20362;-83
2023/04/12 19:34:38;;;;;;;9.98;6.40;;;;;;;;;;13033379;22;20372;-83
2023/04/12 19:39:44;;;;;;;10.07;6.70;;;;;;;;;;13032806;22;20445;-83
2023/04/12 19:44:53;;;;;;;13.10;8.30;;;;;;;;;;13029570;22;20384;-82
2023/04/12 19:49:57;;;;;;;11.43;7.35;;;;;;;;;;13027914;22;20907;-83
2023/04/12 19:55:01;;;;;;;12.98;8.80;;;;;;;;;;13004010;22;20824;-83
2023/04/12 20:00:18;;;;;;;14.68;9.07;;;;;;;;;;13033578;22;20384;-83
2023/04/12 20:05:22;;;;;;;13.68;9.82;;;;;;;;;;13029783;22;20837;-83
2023/04/12 20:10:25;;;;;;;11.98;8.82;;;;;;;;;;13033154;22;20428;-83
2023/04/12 20:15:29;;;;;;;11.63;8.18;;;;;;;;;;13033606;22;20372;-83
2023/04/12 20:20:32;;;;;;;10.25;8.30;;;;;;;;;;13030751;22;20372;-83
2023/04/12 20:25:36;;;;;;;18.00;10.40;;;;;;;;;;13030903;22;20459;-82
2023/04/12 20:30:46;;;;;;;22.75;14.10;;;;;;;;;;13030543;22;20404;-83
2023/04/12 20:35:52;;;;;;;17.20;12.43;;;;;;;;;;13031222;22;20373;-83
2023/04/12 20:40:57;;;;;;;16.88;12.55;;;;;;;;;;13030641;22;20765;-84
2023/04/12 20:46:08;;;;;;;19.63;12.82;;;;;;;;;;13037616;22;20414;-84
2023/04/12 20:51:14;;;;;;;19.38;13.30;;;;;;;;;;13037088;22;20385;-84
2023/04/12 20:56:21;;;;;;;17.33;13.47;;;;;;;;;;13038234;22;20353;-84
2023/04/12 21:01:26;;;;;;;17.55;12.63;;;;;;;;;;13041246;22;20363;-84
2023/04/12 21:06:33;;;;;;;20.08;13.07;;;;;;;;;;13042001;22;20371;-84
2023/04/12 21:11:39;;;;;;;16.92;11.80;;;;;;;;;;13041117;22;20404;-83
2023/04/12 21:16:47;;;;;;;18.53;13.27;;;;;;;;;;13014337;22;20418;-84
2023/04/12 21:21:51;;;;;;;18.35;13.15;;;;;;;;;;13041131;22;20365;-83
2023/04/12 21:26:56;;;;;;;17.42;11.77;;;;;;;;;;13041632;22;20389;-83
2023/04/12 21:32:00;;;;;;;17.23;12.07;;;;;;;;;;13042072;22;20495;-84
2023/04/12 21:37:04;;;;;;;19.05;11.82;;;;;;;;;;13040464;22;20361;-83
2023/04/12 21:42:06;;;;;;;17.73;10.38;;;;;;;;;;13043159;22;20353;-84
2023/04/12 21:47:10;;;;;;;18.13;11.03;;;;;;;;;;13040187;22;20357;-84
2023/04/12 21:52:12;;;;;;;14.77;9.30;;;;;;;;;;13042455;22;20381;-84
2023/04/12 21:57:15;;;;;;;12.48;9.30;;;;;;;;;;13041865;22;20392;-85
2023/04/12 22:02:18;;;;;;;14.05;10.13;;;;;;;;;;13041558;22;20372;-84
2023/04/12 22:07:22;;;;;;;12.57;10.43;;;;;;;;;;13045464;22;20484;-85
2023/04/12 22:12:24;;;;;;;15.60;10.82;;;;;;;;;;13042579;22;20463;-85
2023/04/12 22:17:28;;;;;;;15.70;10.77;;;;;;;;;;13045397;22;20414;-85
2023/04/12 22:22:30;;;;;;;17.40;11.90;;;;;;;;;;13045017;22;20388;-84
2023/04/12 22:27:32;;;;;;;16.70;11.73;;;;;;;;;;13042863;22;20365;-83
2023/04/12 22:32:36;;;;;;;18.08;11.38;;;;;;;;;;13044083;22;20463;-84
2023/04/12 22:37:39;;;;;;;14.07;10.83;;;;;;;;;;13044859;22;20424;-83
2023/04/12 22:42:46;;;;;;;16.90;11.27;;;;;;;;;;13045810;22;20369;-81
2023/04/12 22:47:49;;;;;;;18.80;11.20;;;;;;;;;;13046155;22;20367;-82
2023/04/12 22:52:53;;;;;;;17.10;11.33;;;;;;;;;;13045815;22;20458;-82
2023/04/12 22:57:55;;;;;;;16.27;11.57;;;;;;;;;;13045887;22;20894;-82
2023/04/12 23:02:58;;;;;;;18.10;12.23;;;;;;;;;;13046680;22;20436;-82
2023/04/12 23:08:00;;;;;;;17.10;12.68;;;;;;;;;;13046129;22;20686;-82
2023/04/12 23:13:03;;;;;;;19.77;14.13;;;;;;;;;;13045272;22;20380;-82
2023/04/12 23:18:07;;;;;;;20.60;14.20;;;;;;;;;;13046829;22;20380;-83
2023/04/12 23:23:09;;;;;;;23.63;14.70;;;;;;;;;;13045608;22;20414;-82
2023/04/12 23:28:12;;;;;;;20.92;14.30;;;;;;;;;;13045510;22;20720;-82
2023/04/12 23:33:17;;;;;;;20.15;14.55;;;;;;;;;;13045465;22;20383;-82
2023/04/12 23:38:23;;;;;;;20.80;14.73;;;;;;;;;;13046180;22;20361;-82
2023/04/12 23:43:27;;;;;;;19.67;14.50;;;;;;;;;;13045548;22;20430;-82
2023/04/12 23:48:31;;;;;;;20.35;14.80;;;;;;;;;;13045686;22;20446;-82
2023/04/12 23:53:33;;;;;;;19.40;14.23;;;;;;;;;;13045501;22;20384;-82
2023/04/12 23:58:35;;;;;;;19.30;13.13;;;;;;;;;;13046095;22;20357;-82
